sensor_id;sensor_type;location;lat;lon;timestamp;P1;durP1;ratioP1;P2;durP2;ratioP2
61523;SDS011;47393;38.758;-9.164;2022-08-25T00:01:55;1.75;;;0.60;;
61523;SDS011;47393;38.758;-9.164;2022-08-25T00:04:02;1.30;;;0.52;;
61523;SDS011;47393;38.758;-9.164;2022-08-25T00:06:05;0.60;;;0.60;;
61523;SDS011;47393;38.758;-9.164;2022-08-25T00:08:07;1.20;;;0.95;;
61523;SDS011;47393;38.758;-9.164;2022-08-25T00:10:08;0.60;;;0.60;;
61523;SDS011;47393;38.758;-9.164;2022-08-25T00:12:09;1.00;;;0.70;;
61523;SDS011;47393;38.758;-9.164;2022-08-25T00:14:12;2.13;;;0.93;;
61523;SDS011;47393;38.758;-9.164;2022-08-25T00:16:16;2.97;;;0.80;;
61523;SDS011;47393;38.758;-9.164;2022-08-25T00:18:18;1.23;;;0.80;;
61523;SDS011;47393;38.758;-9.164;2022-08-25T00:20:19;2.67;;;0.90;;
61523;SDS011;47393;38.758;-9.164;2022-08-25T00:22:20;0.70;;;0.70;;
61523;SDS011;47393;38.758;-9.164;2022-08-25T00:24:21;2.83;;;0.88;;
61523;SDS011;47393;38.758;-9.164;2022-08-25T00:26:23;2.42;;;1.00;;
61523;SDS011;47393;38.758;-9.164;2022-08-25T00:28:26;1.42;;;1.00;;
61523;SDS011;47393;38.758;-9.164;2022-08-25T00:30:27;0.90;;;0.90;;
61523;SDS011;47393;38.758;-9.164;2022-08-25T00:32:28;2.30;;;1.02;;
61523;SDS011;47393;38.758;-9.164;2022-08-25T00:34:30;1.00;;;0.80;;
61523;SDS011;47393;38.758;-9.164;2022-08-25T00:38:33;0.90;;;0.70;;
61523;SDS011;47393;38.758;-9.164;2022-08-25T00:40:34;1.73;;;0.75;;
61523;SDS011;47393;38.758;-9.164;2022-08-25T00:42:36;1.67;;;0.77;;
61523;SDS011;47393;38.758;-9.164;2022-08-25T00:44:37;0.88;;;0.88;;
61523;SDS011;47393;38.758;-9.164;2022-08-25T00:46:40;0.90;;;0.90;;
61523;SDS011;47393;38.758;-9.164;2022-08-25T00:48:46;1.80;;;1.10;;
61523;SDS011;47393;38.758;-9.164;2022-08-25T00:50:51;3.85;;;0.70;;
61523;SDS011;47393;38.758;-9.164;2022-08-25T00:52:52;1.92;;;0.93;;
61523;SDS011;47393;38.758;-9.164;2022-08-25T00:56:58;1.48;;;0.65;;
61523;SDS011;47393;38.758;-9.164;2022-08-25T00:59:00;1.65;;;0.75;;
61523;SDS011;47393;38.758;-9.164;2022-08-25T01:01:03;0.82;;;0.70;;
61523;SDS011;47393;38.758;-9.164;2022-08-25T01:03:04;0.90;;;0.63;;
61523;SDS011;47393;38.758;-9.164;2022-08-25T01:05:06;0.98;;;0.65;;
61523;SDS011;47393;38.758;-9.164;2022-08-25T01:07:08;1.63;;;0.80;;
61523;SDS011;47393;38.758;-9.164;2022-08-25T01:09:09;2.55;;;0.70;;
61523;SDS011;47393;38.758;-9.164;2022-08-25T01:11:11;2.70;;;1.08;;
61523;SDS011;47393;38.758;-9.164;2022-08-25T01:13:23;1.08;;;0.68;;
61523;SDS011;47393;38.758;-9.164;2022-08-25T01:15:39;4.13;;;0.75;;
61523;SDS011;47393;38.758;-9.164;2022-08-25T01:17:58;1.42;;;0.63;;
61523;SDS011;47393;38.758;-9.164;2022-08-25T01:19:59;1.15;;;0.50;;
61523;SDS011;47393;38.758;-9.164;2022-08-25T01:22:00;1.27;;;0.80;;
61523;SDS011;47393;38.758;-9.164;2022-08-25T01:24:03;0.50;;;0.50;;
61523;SDS011;47393;38.758;-9.164;2022-08-25T01:28:13;4.63;;;0.93;;
61523;SDS011;47393;38.758;-9.164;2022-08-25T01:30:15;0.90;;;0.65;;
61523;SDS011;47393;38.758;-9.164;2022-08-25T01:32:16;0.98;;;0.77;;
61523;SDS011;47393;38.758;-9.164;2022-08-25T01:34:17;1.63;;;1.02;;
61523;SDS011;47393;38.758;-9.164;2022-08-25T01:36:19;2.20;;;0.90;;
61523;SDS011;47393;38.758;-9.164;2022-08-25T01:38:21;0.98;;;0.90;;
61523;SDS011;47393;38.758;-9.164;2022-08-25T01:40:22;0.90;;;0.90;;
61523;SDS011;47393;38.758;-9.164;2022-08-25T01:42:27;0.80;;;0.80;;
61523;SDS011;47393;38.758;-9.164;2022-08-25T01:44:52;0.65;;;0.65;;
61523;SDS011;47393;38.758;-9.164;2022-08-25T01:46:53;1.27;;;0.80;;
61523;SDS011;47393;38.758;-9.164;2022-08-25T01:48:54;2.13;;;0.98;;
61523;SDS011;47393;38.758;-9.164;2022-08-25T01:50:55;0.82;;;0.82;;
61523;SDS011;47393;38.758;-9.164;2022-08-25T01:54:59;1.58;;;0.77;;
61523;SDS011;47393;38.758;-9.164;2022-08-25T01:57:00;0.93;;;0.70;;
61523;SDS011;47393;38.758;-9.164;2022-08-25T01:59:00;2.85;;;1.30;;
61523;SDS011;47393;38.758;-9.164;2022-08-25T02:01:03;2.05;;;1.23;;
61523;SDS011;47393;38.758;-9.164;2022-08-25T02:03:05;1.00;;;0.98;;
61523;SDS011;47393;38.758;-9.164;2022-08-25T02:05:07;3.00;;;0.90;;
61523;SDS011;47393;38.758;-9.164;2022-08-25T02:07:09;1.00;;;0.90;;
61523;SDS011;47393;38.758;-9.164;2022-08-25T02:09:11;2.53;;;0.70;;
61523;SDS011;47393;38.758;-9.164;2022-08-25T02:11:14;1.63;;;1.10;;
61523;SDS011;47393;38.758;-9.164;2022-08-25T02:13:15;1.55;;;0.90;;
61523;SDS011;47393;38.758;-9.164;2022-08-25T02:15:16;2.55;;;0.75;;
61523;SDS011;47393;38.758;-9.164;2022-08-25T02:17:17;2.38;;;1.00;;
61523;SDS011;47393;38.758;-9.164;2022-08-25T02:19:19;6.90;;;1.45;;
61523;SDS011;47393;38.758;-9.164;2022-08-25T02:21:21;0.90;;;0.82;;
61523;SDS011;47393;38.758;-9.164;2022-08-25T02:23:22;3.72;;;0.90;;
61523;SDS011;47393;38.758;-9.164;2022-08-25T02:25:23;1.20;;;0.77;;
61523;SDS011;47393;38.758;-9.164;2022-08-25T02:27:24;1.75;;;0.80;;
61523;SDS011;47393;38.758;-9.164;2022-08-25T02:29:25;2.55;;;0.75;;
61523;SDS011;47393;38.758;-9.164;2022-08-25T02:31:25;1.13;;;1.02;;
61523;SDS011;47393;38.758;-9.164;2022-08-25T02:33:27;1.02;;;0.60;;
61523;SDS011;47393;38.758;-9.164;2022-08-25T02:35:30;1.35;;;0.85;;
61523;SDS011;47393;38.758;-9.164;2022-08-25T02:37:31;2.92;;;1.00;;
61523;SDS011;47393;38.758;-9.164;2022-08-25T02:39:32;1.85;;;0.73;;
61523;SDS011;47393;38.758;-9.164;2022-08-25T02:41:33;1.58;;;1.02;;
61523;SDS011;47393;38.758;-9.164;2022-08-25T02:43:34;1.40;;;0.90;;
61523;SDS011;47393;38.758;-9.164;2022-08-25T02:45:35;4.22;;;0.95;;
61523;SDS011;47393;38.758;-9.164;2022-08-25T02:47:36;2.25;;;1.25;;
61523;SDS011;47393;38.758;-9.164;2022-08-25T02:49:36;1.00;;;0.90;;
61523;SDS011;47393;38.758;-9.164;2022-08-25T02:51:37;2.17;;;1.10;;
61523;SDS011;47393;38.758;-9.164;2022-08-25T02:53:38;2.65;;;1.25;;
61523;SDS011;47393;38.758;-9.164;2022-08-25T02:55:40;1.00;;;0.90;;
61523;SDS011;47393;38.758;-9.164;2022-08-25T02:57:41;1.23;;;0.98;;
61523;SDS011;47393;38.758;-9.164;2022-08-25T02:59:42;2.00;;;1.00;;
61523;SDS011;47393;38.758;-9.164;2022-08-25T03:01:48;1.10;;;1.00;;
61523;SDS011;47393;38.758;-9.164;2022-08-25T03:03:50;2.90;;;1.20;;
61523;SDS011;47393;38.758;-9.164;2022-08-25T03:05:51;3.00;;;1.13;;
61523;SDS011;47393;38.758;-9.164;2022-08-25T03:07:52;1.30;;;0.90;;
61523;SDS011;47393;38.758;-9.164;2022-08-25T03:09:53;2.13;;;0.90;;
61523;SDS011;47393;38.758;-9.164;2022-08-25T03:11:54;1.05;;;0.82;;
61523;SDS011;47393;38.758;-9.164;2022-08-25T03:13:54;1.05;;;0.73;;
61523;SDS011;47393;38.758;-9.164;2022-08-25T03:15:55;1.40;;;0.90;;
61523;SDS011;47393;38.758;-9.164;2022-08-25T03:17:56;1.13;;;0.80;;
61523;SDS011;47393;38.758;-9.164;2022-08-25T03:19:57;6.00;;;1.02;;
61523;SDS011;47393;38.758;-9.164;2022-08-25T03:21:58;2.83;;;0.90;;
61523;SDS011;47393;38.758;-9.164;2022-08-25T03:23:59;1.50;;;1.08;;
61523;SDS011;47393;38.758;-9.164;2022-08-25T03:26:00;1.67;;;0.90;;
61523;SDS011;47393;38.758;-9.164;2022-08-25T03:28:20;1.15;;;0.90;;
61523;SDS011;47393;38.758;-9.164;2022-08-25T03:30:21;2.08;;;0.93;;
61523;SDS011;47393;38.758;-9.164;2022-08-25T03:32:22;1.40;;;0.68;;
61523;SDS011;47393;38.758;-9.164;2022-08-25T03:34:23;0.90;;;0.65;;
61523;SDS011;47393;38.758;-9.164;2022-08-25T03:36:25;0.57;;;0.57;;
61523;SDS011;47393;38.758;-9.164;2022-08-25T03:38:26;2.25;;;1.10;;
61523;SDS011;47393;38.758;-9.164;2022-08-25T03:40:27;3.78;;;0.85;;
61523;SDS011;47393;38.758;-9.164;2022-08-25T03:42:28;3.42;;;0.73;;
61523;SDS011;47393;38.758;-9.164;2022-08-25T03:44:29;1.75;;;0.50;;
61523;SDS011;47393;38.758;-9.164;2022-08-25T03:46:35;0.52;;;0.52;;
61523;SDS011;47393;38.758;-9.164;2022-08-25T03:48:38;1.63;;;0.90;;
61523;SDS011;47393;38.758;-9.164;2022-08-25T03:50:43;2.38;;;1.00;;
61523;SDS011;47393;38.758;-9.164;2022-08-25T03:52:49;2.45;;;1.17;;
61523;SDS011;47393;38.758;-9.164;2022-08-25T03:54:54;3.20;;;1.00;;
61523;SDS011;47393;38.758;-9.164;2022-08-25T03:56:54;4.22;;;1.27;;
61523;SDS011;47393;38.758;-9.164;2022-08-25T03:58:55;1.88;;;1.00;;
61523;SDS011;47393;38.758;-9.164;2022-08-25T04:00:56;1.15;;;0.75;;
61523;SDS011;47393;38.758;-9.164;2022-08-25T04:02:57;1.77;;;0.80;;
61523;SDS011;47393;38.758;-9.164;2022-08-25T04:04:58;1.25;;;0.85;;
61523;SDS011;47393;38.758;-9.164;2022-08-25T04:06:59;3.97;;;1.02;;
61523;SDS011;47393;38.758;-9.164;2022-08-25T04:09:00;4.07;;;1.05;;
61523;SDS011;47393;38.758;-9.164;2022-08-25T04:11:14;3.25;;;1.10;;
61523;SDS011;47393;38.758;-9.164;2022-08-25T04:13:18;2.30;;;1.13;;
61523;SDS011;47393;38.758;-9.164;2022-08-25T04:15:18;2.88;;;1.60;;
61523;SDS011;47393;38.758;-9.164;2022-08-25T04:17:19;2.78;;;1.17;;
61523;SDS011;47393;38.758;-9.164;2022-08-25T04:19:20;2.80;;;1.08;;
61523;SDS011;47393;38.758;-9.164;2022-08-25T04:21:21;1.60;;;1.10;;
61523;SDS011;47393;38.758;-9.164;2022-08-25T04:23:23;2.38;;;0.98;;
61523;SDS011;47393;38.758;-9.164;2022-08-25T04:25:26;2.38;;;1.20;;
61523;SDS011;47393;38.758;-9.164;2022-08-25T04:27:27;2.28;;;1.58;;
61523;SDS011;47393;38.758;-9.164;2022-08-25T04:29:28;2.17;;;1.17;;
61523;SDS011;47393;38.758;-9.164;2022-08-25T04:31:29;3.67;;;1.88;;
61523;SDS011;47393;38.758;-9.164;2022-08-25T04:33:31;1.63;;;1.42;;
61523;SDS011;47393;38.758;-9.164;2022-08-25T04:35:32;3.10;;;1.70;;
61523;SDS011;47393;38.758;-9.164;2022-08-25T04:37:32;3.75;;;1.80;;
61523;SDS011;47393;38.758;-9.164;2022-08-25T04:39:34;4.35;;;1.83;;
61523;SDS011;47393;38.758;-9.164;2022-08-25T04:41:35;3.15;;;1.52;;
61523;SDS011;47393;38.758;-9.164;2022-08-25T04:43:37;2.75;;;1.60;;
61523;SDS011;47393;38.758;-9.164;2022-08-25T04:45:39;2.95;;;1.55;;
61523;SDS011;47393;38.758;-9.164;2022-08-25T04:47:40;6.13;;;1.70;;
61523;SDS011;47393;38.758;-9.164;2022-08-25T04:49:40;5.18;;;1.40;;
61523;SDS011;47393;38.758;-9.164;2022-08-25T04:51:42;1.77;;;1.30;;
61523;SDS011;47393;38.758;-9.164;2022-08-25T04:53:43;4.22;;;1.98;;
61523;SDS011;47393;38.758;-9.164;2022-08-25T04:55:45;5.35;;;1.40;;
61523;SDS011;47393;38.758;-9.164;2022-08-25T04:57:47;8.55;;;1.63;;
61523;SDS011;47393;38.758;-9.164;2022-08-25T04:59:48;3.28;;;1.90;;
61523;SDS011;47393;38.758;-9.164;2022-08-25T05:01:49;3.22;;;1.70;;
61523;SDS011;47393;38.758;-9.164;2022-08-25T05:03:57;4.18;;;1.38;;
61523;SDS011;47393;38.758;-9.164;2022-08-25T05:06:03;4.22;;;1.75;;
61523;SDS011;47393;38.758;-9.164;2022-08-25T05:08:04;6.18;;;2.00;;
61523;SDS011;47393;38.758;-9.164;2022-08-25T05:10:06;3.28;;;2.13;;
61523;SDS011;47393;38.758;-9.164;2022-08-25T05:12:07;3.20;;;1.70;;
61523;SDS011;47393;38.758;-9.164;2022-08-25T05:14:08;4.20;;;1.70;;
61523;SDS011;47393;38.758;-9.164;2022-08-25T05:16:08;3.08;;;1.40;;
61523;SDS011;47393;38.758;-9.164;2022-08-25T05:18:09;4.70;;;1.95;;
61523;SDS011;47393;38.758;-9.164;2022-08-25T05:20:10;2.63;;;1.65;;
61523;SDS011;47393;38.758;-9.164;2022-08-25T05:22:11;6.07;;;1.90;;
61523;SDS011;47393;38.758;-9.164;2022-08-25T05:24:11;3.67;;;1.85;;
61523;SDS011;47393;38.758;-9.164;2022-08-25T05:26:14;6.35;;;2.00;;
61523;SDS011;47393;38.758;-9.164;2022-08-25T05:28:18;3.97;;;1.80;;
61523;SDS011;47393;38.758;-9.164;2022-08-25T05:30:19;3.38;;;1.58;;
61523;SDS011;47393;38.758;-9.164;2022-08-25T05:32:20;2.13;;;1.92;;
61523;SDS011;47393;38.758;-9.164;2022-08-25T05:34:21;3.58;;;1.63;;
61523;SDS011;47393;38.758;-9.164;2022-08-25T05:36:22;4.35;;;1.75;;
61523;SDS011;47393;38.758;-9.164;2022-08-25T05:38:25;7.25;;;1.85;;
61523;SDS011;47393;38.758;-9.164;2022-08-25T05:40:27;7.40;;;2.20;;
61523;SDS011;47393;38.758;-9.164;2022-08-25T05:42:27;4.43;;;1.60;;
61523;SDS011;47393;38.758;-9.164;2022-08-25T05:44:28;5.55;;;1.90;;
61523;SDS011;47393;38.758;-9.164;2022-08-25T05:46:29;6.45;;;1.95;;
61523;SDS011;47393;38.758;-9.164;2022-08-25T05:48:29;5.97;;;2.00;;
61523;SDS011;47393;38.758;-9.164;2022-08-25T05:50:30;6.07;;;1.95;;
61523;SDS011;47393;38.758;-9.164;2022-08-25T05:52:32;5.90;;;1.88;;
61523;SDS011;47393;38.758;-9.164;2022-08-25T05:54:32;4.55;;;1.90;;
61523;SDS011;47393;38.758;-9.164;2022-08-25T05:56:33;6.70;;;2.10;;
61523;SDS011;47393;38.758;-9.164;2022-08-25T05:58:34;4.05;;;1.60;;
61523;SDS011;47393;38.758;-9.164;2022-08-25T06:00:36;3.03;;;1.75;;
61523;SDS011;47393;38.758;-9.164;2022-08-25T06:02:38;7.60;;;1.70;;
61523;SDS011;47393;38.758;-9.164;2022-08-25T06:04:45;3.75;;;1.85;;
61523;SDS011;47393;38.758;-9.164;2022-08-25T06:06:46;3.05;;;1.92;;
61523;SDS011;47393;38.758;-9.164;2022-08-25T06:08:47;4.75;;;2.05;;
61523;SDS011;47393;38.758;-9.164;2022-08-25T06:10:51;2.45;;;1.80;;
61523;SDS011;47393;38.758;-9.164;2022-08-25T06:12:53;4.65;;;1.60;;
61523;SDS011;47393;38.758;-9.164;2022-08-25T06:14:54;3.30;;;1.80;;
61523;SDS011;47393;38.758;-9.164;2022-08-25T06:16:55;4.57;;;2.17;;
61523;SDS011;47393;38.758;-9.164;2022-08-25T06:18:58;4.22;;;2.05;;
61523;SDS011;47393;38.758;-9.164;2022-08-25T06:21:08;3.47;;;1.80;;
61523;SDS011;47393;38.758;-9.164;2022-08-25T06:23:11;6.22;;;2.00;;
61523;SDS011;47393;38.758;-9.164;2022-08-25T06:25:13;6.78;;;2.40;;
61523;SDS011;47393;38.758;-9.164;2022-08-25T06:27:21;7.45;;;1.98;;
61523;SDS011;47393;38.758;-9.164;2022-08-25T06:29:22;6.28;;;2.13;;
61523;SDS011;47393;38.758;-9.164;2022-08-25T06:31:26;4.32;;;2.10;;
61523;SDS011;47393;38.758;-9.164;2022-08-25T06:33:26;5.45;;;2.15;;
61523;SDS011;47393;38.758;-9.164;2022-08-25T06:35:27;5.25;;;2.10;;
61523;SDS011;47393;38.758;-9.164;2022-08-25T06:37:28;11.80;;;2.35;;
61523;SDS011;47393;38.758;-9.164;2022-08-25T06:39:29;5.35;;;2.28;;
61523;SDS011;47393;38.758;-9.164;2022-08-25T06:41:30;4.05;;;1.75;;
61523;SDS011;47393;38.758;-9.164;2022-08-25T06:43:31;3.88;;;2.10;;
61523;SDS011;47393;38.758;-9.164;2022-08-25T06:45:33;3.60;;;2.15;;
61523;SDS011;47393;38.758;-9.164;2022-08-25T06:47:34;2.97;;;1.80;;
61523;SDS011;47393;38.758;-9.164;2022-08-25T06:49:35;5.40;;;1.83;;
61523;SDS011;47393;38.758;-9.164;2022-08-25T06:51:36;3.55;;;2.22;;
61523;SDS011;47393;38.758;-9.164;2022-08-25T06:53:37;5.82;;;2.00;;
61523;SDS011;47393;38.758;-9.164;2022-08-25T06:55:38;2.55;;;1.98;;
61523;SDS011;47393;38.758;-9.164;2022-08-25T06:57:39;2.55;;;1.85;;
61523;SDS011;47393;38.758;-9.164;2022-08-25T06:59:40;3.53;;;1.90;;
61523;SDS011;47393;38.758;-9.164;2022-08-25T07:01:41;3.58;;;2.05;;
61523;SDS011;47393;38.758;-9.164;2022-08-25T07:03:42;4.05;;;2.42;;
61523;SDS011;47393;38.758;-9.164;2022-08-25T07:05:53;3.08;;;2.15;;
61523;SDS011;47393;38.758;-9.164;2022-08-25T07:07:55;2.28;;;2.08;;
61523;SDS011;47393;38.758;-9.164;2022-08-25T07:09:55;2.50;;;2.30;;
61523;SDS011;47393;38.758;-9.164;2022-08-25T07:11:56;7.22;;;2.28;;
61523;SDS011;47393;38.758;-9.164;2022-08-25T07:13:57;3.45;;;2.15;;
61523;SDS011;47393;38.758;-9.164;2022-08-25T07:15:58;6.88;;;2.38;;
61523;SDS011;47393;38.758;-9.164;2022-08-25T07:17:58;8.30;;;2.80;;
61523;SDS011;47393;38.758;-9.164;2022-08-25T07:19:59;2.97;;;2.28;;
61523;SDS011;47393;38.758;-9.164;2022-08-25T07:22:00;7.32;;;2.55;;
61523;SDS011;47393;38.758;-9.164;2022-08-25T07:24:01;7.45;;;2.58;;
61523;SDS011;47393;38.758;-9.164;2022-08-25T07:26:08;7.80;;;2.53;;
61523;SDS011;47393;38.758;-9.164;2022-08-25T07:28:14;7.30;;;2.58;;
61523;SDS011;47393;38.758;-9.164;2022-08-25T07:30:16;6.18;;;2.58;;
61523;SDS011;47393;38.758;-9.164;2022-08-25T07:32:17;2.75;;;2.47;;
61523;SDS011;47393;38.758;-9.164;2022-08-25T07:34:17;3.85;;;2.95;;
61523;SDS011;47393;38.758;-9.164;2022-08-25T07:36:36;2.58;;;2.03;;
61523;SDS011;47393;38.758;-9.164;2022-08-25T07:38:37;6.70;;;2.67;;
61523;SDS011;47393;38.758;-9.164;2022-08-25T07:40:38;7.32;;;2.90;;
61523;SDS011;47393;38.758;-9.164;2022-08-25T07:42:39;3.20;;;2.83;;
61523;SDS011;47393;38.758;-9.164;2022-08-25T07:44:40;3.13;;;2.60;;
61523;SDS011;47393;38.758;-9.164;2022-08-25T07:46:41;4.00;;;2.65;;
61523;SDS011;47393;38.758;-9.164;2022-08-25T07:48:42;10.55;;;3.03;;
61523;SDS011;47393;38.758;-9.164;2022-08-25T07:50:43;3.60;;;2.90;;
61523;SDS011;47393;38.758;-9.164;2022-08-25T07:52:44;5.13;;;2.65;;
61523;SDS011;47393;38.758;-9.164;2022-08-25T07:54:45;4.63;;;2.63;;
61523;SDS011;47393;38.758;-9.164;2022-08-25T07:56:46;3.50;;;2.60;;
61523;SDS011;47393;38.758;-9.164;2022-08-25T07:58:47;8.70;;;2.67;;
61523;SDS011;47393;38.758;-9.164;2022-08-25T08:00:48;6.35;;;2.78;;
61523;SDS011;47393;38.758;-9.164;2022-08-25T08:02:49;5.38;;;2.63;;
61523;SDS011;47393;38.758;-9.164;2022-08-25T08:04:52;9.68;;;2.67;;
61523;SDS011;47393;38.758;-9.164;2022-08-25T08:06:53;6.68;;;2.30;;
61523;SDS011;47393;38.758;-9.164;2022-08-25T08:08:54;6.00;;;2.45;;
61523;SDS011;47393;38.758;-9.164;2022-08-25T08:10:55;3.40;;;2.70;;
61523;SDS011;47393;38.758;-9.164;2022-08-25T08:12:56;9.38;;;2.60;;
61523;SDS011;47393;38.758;-9.164;2022-08-25T08:14:58;4.65;;;2.80;;
61523;SDS011;47393;38.758;-9.164;2022-08-25T08:16:59;5.78;;;2.85;;
61523;SDS011;47393;38.758;-9.164;2022-08-25T08:19:04;6.72;;;2.20;;
61523;SDS011;47393;38.758;-9.164;2022-08-25T08:21:09;6.32;;;2.60;;
61523;SDS011;47393;38.758;-9.164;2022-08-25T08:23:16;4.57;;;2.25;;
61523;SDS011;47393;38.758;-9.164;2022-08-25T08:25:19;5.83;;;2.70;;
61523;SDS011;47393;38.758;-9.164;2022-08-25T08:27:20;4.35;;;2.53;;
61523;SDS011;47393;38.758;-9.164;2022-08-25T08:29:21;5.13;;;2.55;;
61523;SDS011;47393;38.758;-9.164;2022-08-25T08:31:23;5.47;;;2.50;;
61523;SDS011;47393;38.758;-9.164;2022-08-25T08:33:27;7.95;;;3.28;;
61523;SDS011;47393;38.758;-9.164;2022-08-25T08:35:28;7.53;;;3.05;;
61523;SDS011;47393;38.758;-9.164;2022-08-25T08:37:29;4.03;;;3.03;;
61523;SDS011;47393;38.758;-9.164;2022-08-25T08:39:33;8.00;;;3.03;;
61523;SDS011;47393;38.758;-9.164;2022-08-25T08:46:21;6.85;;;3.55;;
61523;SDS011;47393;38.758;-9.164;2022-08-25T08:51:15;9.82;;;3.88;;
61523;SDS011;47393;38.758;-9.164;2022-08-25T08:53:21;8.77;;;3.90;;
61523;SDS011;47393;38.758;-9.164;2022-08-25T08:57:42;8.50;;;2.90;;
61523;SDS011;47393;38.758;-9.164;2022-08-25T08:59:59;5.15;;;3.08;;
61523;SDS011;47393;38.758;-9.164;2022-08-25T09:02:04;8.95;;;3.03;;
61523;SDS011;47393;38.758;-9.164;2022-08-25T09:04:24;10.15;;;3.00;;
61523;SDS011;47393;38.758;-9.164;2022-08-25T09:06:36;7.45;;;3.20;;
61523;SDS011;47393;38.758;-9.164;2022-08-25T09:08:42;6.95;;;2.90;;
61523;SDS011;47393;38.758;-9.164;2022-08-25T09:17:14;4.97;;;2.67;;
61523;SDS011;47393;38.758;-9.164;2022-08-25T09:24:00;4.50;;;3.10;;
61523;SDS011;47393;38.758;-9.164;2022-08-25T09:28:31;5.95;;;4.00;;
61523;SDS011;47393;38.758;-9.164;2022-08-25T09:33:03;9.85;;;4.20;;
61523;SDS011;47393;38.758;-9.164;2022-08-25T09:35:05;10.65;;;4.32;;
61523;SDS011;47393;38.758;-9.164;2022-08-25T09:37:09;6.10;;;4.63;;
61523;SDS011;47393;38.758;-9.164;2022-08-25T09:39:10;11.45;;;4.78;;
61523;SDS011;47393;38.758;-9.164;2022-08-25T09:41:10;7.25;;;4.30;;
61523;SDS011;47393;38.758;-9.164;2022-08-25T09:43:20;7.68;;;4.20;;
61523;SDS011;47393;38.758;-9.164;2022-08-25T09:45:41;9.73;;;4.07;;
61523;SDS011;47393;38.758;-9.164;2022-08-25T09:47:44;7.45;;;4.75;;
61523;SDS011;47393;38.758;-9.164;2022-08-25T09:49:46;9.43;;;4.30;;
61523;SDS011;47393;38.758;-9.164;2022-08-25T09:51:49;8.73;;;3.90;;
61523;SDS011;47393;38.758;-9.164;2022-08-25T09:53:52;10.35;;;4.22;;
61523;SDS011;47393;38.758;-9.164;2022-08-25T09:56:11;11.35;;;4.32;;
61523;SDS011;47393;38.758;-9.164;2022-08-25T09:58:14;8.73;;;4.90;;
61523;SDS011;47393;38.758;-9.164;2022-08-25T10:00:19;13.73;;;4.32;;
61523;SDS011;47393;38.758;-9.164;2022-08-25T10:02:26;10.90;;;5.03;;
61523;SDS011;47393;38.758;-9.164;2022-08-25T10:06:43;10.30;;;4.53;;
61523;SDS011;47393;38.758;-9.164;2022-08-25T10:10:54;11.80;;;5.50;;
61523;SDS011;47393;38.758;-9.164;2022-08-25T10:12:58;7.13;;;4.70;;
61523;SDS011;47393;38.758;-9.164;2022-08-25T10:14:59;11.13;;;4.93;;
61523;SDS011;47393;38.758;-9.164;2022-08-25T10:17:26;13.88;;;5.72;;
61523;SDS011;47393;38.758;-9.164;2022-08-25T10:19:30;9.13;;;5.57;;
61523;SDS011;47393;38.758;-9.164;2022-08-25T10:21:32;9.40;;;4.88;;
61523;SDS011;47393;38.758;-9.164;2022-08-25T10:23:45;14.43;;;5.88;;
61523;SDS011;47393;38.758;-9.164;2022-08-25T10:25:48;12.82;;;4.95;;
61523;SDS011;47393;38.758;-9.164;2022-08-25T10:34:54;11.35;;;4.30;;
61523;SDS011;47393;38.758;-9.164;2022-08-25T10:44:12;11.32;;;4.93;;
61523;SDS011;47393;38.758;-9.164;2022-08-25T10:46:47;14.20;;;4.68;;
61523;SDS011;47393;38.758;-9.164;2022-08-25T10:49:00;12.23;;;5.22;;
61523;SDS011;47393;38.758;-9.164;2022-08-25T10:51:37;10.48;;;4.07;;
61523;SDS011;47393;38.758;-9.164;2022-08-25T10:54:03;14.98;;;4.97;;
61523;SDS011;47393;38.758;-9.164;2022-08-25T10:56:14;14.05;;;4.55;;
61523;SDS011;47393;38.758;-9.164;2022-08-25T11:00:25;12.60;;;4.43;;
61523;SDS011;47393;38.758;-9.164;2022-08-25T11:05:12;9.57;;;4.75;;
61523;SDS011;47393;38.758;-9.164;2022-08-25T11:07:41;15.38;;;4.25;;
61523;SDS011;47393;38.758;-9.164;2022-08-25T11:09:48;11.60;;;4.38;;
61523;SDS011;47393;38.758;-9.164;2022-08-25T11:12:03;13.80;;;4.70;;
61523;SDS011;47393;38.758;-9.164;2022-08-25T11:14:09;10.00;;;4.18;;
61523;SDS011;47393;38.758;-9.164;2022-08-25T11:16:19;11.02;;;4.00;;
61523;SDS011;47393;38.758;-9.164;2022-08-25T11:18:29;16.65;;;4.15;;
61523;SDS011;47393;38.758;-9.164;2022-08-25T11:20:35;8.77;;;4.28;;
61523;SDS011;47393;38.758;-9.164;2022-08-25T11:22:41;10.50;;;3.97;;
61523;SDS011;47393;38.758;-9.164;2022-08-25T11:24:49;9.70;;;4.07;;
61523;SDS011;47393;38.758;-9.164;2022-08-25T11:27:11;7.88;;;3.45;;
61523;SDS011;47393;38.758;-9.164;2022-08-25T11:29:20;13.07;;;3.88;;
61523;SDS011;47393;38.758;-9.164;2022-08-25T11:31:26;8.77;;;4.70;;
61523;SDS011;47393;38.758;-9.164;2022-08-25T11:33:28;13.10;;;4.07;;
61523;SDS011;47393;38.758;-9.164;2022-08-25T11:35:31;12.27;;;4.43;;
61523;SDS011;47393;38.758;-9.164;2022-08-25T11:37:43;10.38;;;4.18;;
61523;SDS011;47393;38.758;-9.164;2022-08-25T11:42:28;5.50;;;4.60;;
61523;SDS011;47393;38.758;-9.164;2022-08-25T11:45:05;10.90;;;4.18;;
61523;SDS011;47393;38.758;-9.164;2022-08-25T11:49:48;6.97;;;4.20;;
61523;SDS011;47393;38.758;-9.164;2022-08-25T11:52:01;8.15;;;3.95;;
61523;SDS011;47393;38.758;-9.164;2022-08-25T11:56:31;8.27;;;3.53;;
61523;SDS011;47393;38.758;-9.164;2022-08-25T11:58:38;7.60;;;4.25;;
61523;SDS011;47393;38.758;-9.164;2022-08-25T12:00:50;7.47;;;4.25;;
61523;SDS011;47393;38.758;-9.164;2022-08-25T12:02:50;8.00;;;3.80;;
61523;SDS011;47393;38.758;-9.164;2022-08-25T12:04:51;8.18;;;4.25;;
61523;SDS011;47393;38.758;-9.164;2022-08-25T12:11:06;19.13;;;4.15;;
61523;SDS011;47393;38.758;-9.164;2022-08-25T12:16:00;7.70;;;3.50;;
61523;SDS011;47393;38.758;-9.164;2022-08-25T12:18:09;7.95;;;3.22;;
61523;SDS011;47393;38.758;-9.164;2022-08-25T12:21:33;5.30;;;3.28;;
61523;SDS011;47393;38.758;-9.164;2022-08-25T12:23:05;3.50;;;3.20;;
61523;SDS011;47393;38.758;-9.164;2022-08-25T12:25:12;9.93;;;3.58;;
61523;SDS011;47393;38.758;-9.164;2022-08-25T12:29:52;8.57;;;3.13;;
61523;SDS011;47393;38.758;-9.164;2022-08-25T12:35:11;8.38;;;2.60;;
61523;SDS011;47393;38.758;-9.164;2022-08-25T12:37:31;11.82;;;3.22;;
61523;SDS011;47393;38.758;-9.164;2022-08-25T12:39:36;8.63;;;2.92;;
61523;SDS011;47393;38.758;-9.164;2022-08-25T12:42:45;8.05;;;2.22;;
61523;SDS011;47393;38.758;-9.164;2022-08-25T12:44:42;3.10;;;2.47;;
61523;SDS011;47393;38.758;-9.164;2022-08-25T12:46:45;2.40;;;2.00;;
61523;SDS011;47393;38.758;-9.164;2022-08-25T12:48:54;13.70;;;3.30;;
61523;SDS011;47393;38.758;-9.164;2022-08-25T12:53:08;7.32;;;2.95;;
61523;SDS011;47393;38.758;-9.164;2022-08-25T12:55:33;2.33;;;2.13;;
61523;SDS011;47393;38.758;-9.164;2022-08-25T12:59:47;4.93;;;2.65;;
61523;SDS011;47393;38.758;-9.164;2022-08-25T13:01:58;3.03;;;2.55;;
61523;SDS011;47393;38.758;-9.164;2022-08-25T13:09:09;4.93;;;2.15;;
61523;SDS011;47393;38.758;-9.164;2022-08-25T13:11:39;3.88;;;2.47;;
61523;SDS011;47393;38.758;-9.164;2022-08-25T13:16:02;6.50;;;2.75;;
61523;SDS011;47393;38.758;-9.164;2022-08-25T13:18:13;3.65;;;2.30;;
61523;SDS011;47393;38.758;-9.164;2022-08-25T13:20:23;5.65;;;2.78;;
61523;SDS011;47393;38.758;-9.164;2022-08-25T13:22:26;6.30;;;1.98;;
61523;SDS011;47393;38.758;-9.164;2022-08-25T13:24:34;7.10;;;2.65;;
61523;SDS011;47393;38.758;-9.164;2022-08-25T13:26:43;7.88;;;2.95;;
61523;SDS011;47393;38.758;-9.164;2022-08-25T13:28:57;7.50;;;2.08;;
61523;SDS011;47393;38.758;-9.164;2022-08-25T13:31:25;3.90;;;2.55;;
61523;SDS011;47393;38.758;-9.164;2022-08-25T13:33:27;9.55;;;3.28;;
61523;SDS011;47393;38.758;-9.164;2022-08-25T13:35:29;5.47;;;2.33;;
61523;SDS011;47393;38.758;-9.164;2022-08-25T13:37:30;6.38;;;2.50;;
61523;SDS011;47393;38.758;-9.164;2022-08-25T13:39:32;6.25;;;1.77;;
61523;SDS011;47393;38.758;-9.164;2022-08-25T13:41:35;6.18;;;2.10;;
61523;SDS011;47393;38.758;-9.164;2022-08-25T13:43:36;5.88;;;2.28;;
61523;SDS011;47393;38.758;-9.164;2022-08-25T13:45:42;3.22;;;2.25;;
61523;SDS011;47393;38.758;-9.164;2022-08-25T13:47:45;9.68;;;2.92;;